createdAt,value
2018-10-18T00:00:39.301Z,1015.57
2018-10-18T00:01:39.323Z,1015.58
2018-10-18T00:02:39.341Z,1015.59
2018-10-18T00:03:39.362Z,1015.59
2018-10-18T00:04:39.381Z,1015.58
2018-10-18T00:05:39.405Z,1015.61
2018-10-18T00:06:39.422Z,1015.59
2018-10-18T00:07:39.441Z,1015.56
2018-10-18T00:08:39.461Z,1015.58
2018-10-18T00:09:39.482Z,1015.57
2018-10-18T00:10:39.502Z,1015.59
2018-10-18T00:11:39.522Z,1015.61
2018-10-18T00:12:39.547Z,1015.62
2018-10-18T00:13:39.562Z,1015.66
2018-10-18T00:14:39.582Z,1015.62
2018-10-18T00:15:39.601Z,1015.60
2018-10-18T00:16:39.626Z,1015.59
2018-10-18T00:17:39.642Z,1015.64
2018-10-18T00:18:39.663Z,1015.61
2018-10-18T00:19:39.684Z,1015.67
2018-10-18T00:20:39.701Z,1015.62
2018-10-18T00:21:39.722Z,1015.65
2018-10-18T00:22:39.743Z,1015.68
2018-10-18T00:23:39.762Z,1015.69
2018-10-18T00:24:39.782Z,1015.66
2018-10-18T00:25:39.801Z,1015.70
2018-10-18T00:26:39.823Z,1015.68
2018-10-18T00:27:39.842Z,1015.71
2018-10-18T00:28:39.863Z,1015.71
2018-10-18T00:29:39.882Z,1015.73
2018-10-18T00:30:39.901Z,1015.75
2018-10-18T00:31:39.924Z,1015.74
2018-10-18T00:32:39.941Z,1015.78
2018-10-18T00:33:39.962Z,1015.74
2018-10-18T00:34:39.986Z,1015.73
2018-10-18T00:35:40.001Z,1015.75
2018-10-18T00:36:40.022Z,1015.75
2018-10-18T00:37:40.042Z,1015.79
2018-10-18T00:38:40.063Z,1015.80
2018-10-18T00:39:40.082Z,1015.80
2018-10-18T00:40:40.101Z,1015.84
2018-10-18T00:41:40.123Z,1015.80
2018-10-18T00:42:40.142Z,1015.82
2018-10-18T00:43:40.163Z,1015.81
2018-10-18T00:44:40.182Z,1015.82
2018-10-18T00:45:40.202Z,1015.83
2018-10-18T00:46:40.221Z,1015.83
2018-10-18T00:47:40.244Z,1015.82
2018-10-18T00:48:40.261Z,1015.84
2018-10-18T00:49:40.281Z,1015.79
2018-10-18T00:50:40.302Z,1015.79
2018-10-18T00:51:40.321Z,1015.82
2018-10-18T00:52:40.341Z,1015.80
2018-10-18T00:53:40.362Z,1015.76
2018-10-18T00:54:40.382Z,1015.80
2018-10-18T00:55:40.401Z,1015.85
2018-10-18T00:56:40.421Z,1015.81
2018-10-18T00:57:40.441Z,1015.79
2018-10-18T00:58:40.461Z,1015.84
2018-10-18T00:59:40.482Z,1015.82
2018-10-18T01:00:40.501Z,1015.88
2018-10-18T01:01:40.522Z,1015.85
2018-10-18T01:02:40.541Z,1015.86
2018-10-18T01:03:40.560Z,1015.84
2018-10-18T01:04:40.583Z,1015.90
2018-10-18T01:05:40.604Z,1015.88
2018-10-18T01:06:40.623Z,1015.90
2018-10-18T01:07:40.641Z,1015.91
2018-10-18T01:08:40.662Z,1015.92
2018-10-18T01:09:40.685Z,1015.92
2018-10-18T01:10:40.703Z,1015.88
2018-10-18T01:11:40.725Z,1015.93
2018-10-18T01:12:40.839Z,1015.89
2018-10-18T01:13:40.762Z,1015.93
2018-10-18T01:14:40.788Z,1015.91
2018-10-18T01:15:40.806Z,1015.90
2018-10-18T01:16:40.822Z,1015.95
2018-10-18T01:17:40.852Z,1015.92
2018-10-18T01:18:40.863Z,1015.94
2018-10-18T01:19:40.886Z,1015.95
2018-10-18T01:20:40.906Z,1015.98
2018-10-18T01:21:40.925Z,1015.98
2018-10-18T01:22:40.944Z,1015.99
2018-10-18T01:23:40.963Z,1015.99
2018-10-18T01:24:40.984Z,1015.97
2018-10-18T01:25:41.004Z,1015.97
2018-10-18T01:26:41.025Z,1015.98
2018-10-18T01:27:41.044Z,1015.94
2018-10-18T01:28:41.064Z,1015.99
2018-10-18T01:29:41.085Z,1015.97
2018-10-18T01:30:41.109Z,1015.96
2018-10-18T01:31:41.125Z,1015.97
2018-10-18T01:32:41.145Z,1015.97
2018-10-18T01:33:41.166Z,1015.97
2018-10-18T01:34:41.186Z,1015.96
2018-10-18T01:35:41.205Z,1015.94
2018-10-18T01:36:41.226Z,1016.04
2018-10-18T01:37:41.246Z,1015.99
2018-10-18T01:38:41.267Z,1016.04
2018-10-18T01:39:41.286Z,1016.01
2018-10-18T01:40:41.307Z,1016.03
2018-10-18T01:41:41.327Z,1016.04
2018-10-18T01:42:41.346Z,1016.00
2018-10-18T01:43:41.368Z,1016.03
2018-10-18T01:44:41.387Z,1016.02
2018-10-18T01:45:41.407Z,1015.97
2018-10-18T01:46:41.428Z,1016.00
2018-10-18T01:47:41.447Z,1016.04
2018-10-18T01:48:41.467Z,1016.03
2018-10-18T01:49:41.490Z,1016.01
2018-10-18T01:50:41.511Z,1016.00
2018-10-18T01:51:41.528Z,1015.99
2018-10-18T01:52:41.549Z,1016.00
2018-10-18T01:53:41.569Z,1016.02
2018-10-18T01:54:41.590Z,1016.01
2018-10-18T01:55:41.608Z,1016.01
2018-10-18T01:56:41.629Z,1016.00
2018-10-18T01:57:41.649Z,1016.07
2018-10-18T01:58:41.669Z,1016.06
2018-10-18T01:59:41.692Z,1016.05
2018-10-18T02:00:41.710Z,1016.02
2018-10-18T02:01:41.731Z,1016.03
2018-10-18T02:02:41.751Z,1016.03
2018-10-18T02:03:41.770Z,1016.02
2018-10-18T02:04:41.791Z,1016.03
2018-10-18T02:05:41.812Z,1016.01
2018-10-18T02:06:41.832Z,1016.04
2018-10-18T02:07:41.851Z,1016.04
2018-10-18T02:08:41.872Z,1016.04
2018-10-18T02:09:41.893Z,1016.07
2018-10-18T02:10:41.913Z,1016.05
2018-10-18T02:11:41.932Z,1016.11
2018-10-18T02:12:41.953Z,1016.06
2018-10-18T02:13:42.053Z,1016.06
2018-10-18T02:14:41.993Z,1016.03
2018-10-18T02:15:42.018Z,1016.07
2018-10-18T02:16:42.034Z,1016.11
2018-10-18T02:17:42.053Z,1016.07
2018-10-18T02:18:42.078Z,1016.10
2018-10-18T02:19:42.093Z,1016.09
2018-10-18T02:20:42.114Z,1016.06
2018-10-18T02:21:42.135Z,1016.08
2018-10-18T02:22:42.157Z,1016.07
2018-10-18T02:23:42.175Z,1016.11
2018-10-18T02:24:42.196Z,1016.15
2018-10-18T02:25:42.216Z,1016.09
2018-10-18T02:26:42.237Z,1016.13
2018-10-18T02:27:42.256Z,1016.11
2018-10-18T02:28:42.276Z,1016.11
2018-10-18T02:29:42.296Z,1016.10
2018-10-18T02:30:42.319Z,1016.12
2018-10-18T02:31:42.337Z,1016.10
2018-10-18T02:32:42.358Z,1016.07
2018-10-18T02:33:42.376Z,1016.05
2018-10-18T02:34:42.399Z,1015.99
2018-10-18T02:35:42.418Z,1016.00
2018-10-18T02:36:42.438Z,1016.00
2018-10-18T02:37:42.459Z,1015.98
2018-10-18T02:38:42.479Z,1016.04
2018-10-18T02:39:42.500Z,1016.05
2018-10-18T02:40:42.518Z,1016.09
2018-10-18T02:41:42.542Z,1016.07
2018-10-18T02:42:42.561Z,1016.07
2018-10-18T02:43:42.579Z,1016.04
2018-10-18T02:44:42.599Z,1016.09
2018-10-18T02:45:42.622Z,1016.07
2018-10-18T02:46:42.643Z,1016.09
2018-10-18T02:47:42.659Z,1016.08
2018-10-18T02:48:42.685Z,1016.11
2018-10-18T02:49:42.701Z,1016.12
2018-10-18T02:50:42.720Z,1016.12
2018-10-18T02:51:42.743Z,1016.13
2018-10-18T02:52:42.760Z,1016.10
2018-10-18T02:53:42.782Z,1016.09
2018-10-18T02:54:42.805Z,1016.08
2018-10-18T02:55:42.823Z,1016.06
2018-10-18T02:56:42.840Z,1016.07
2018-10-18T02:57:42.925Z,1016.07
2018-10-18T02:58:42.883Z,1016.06
2018-10-18T02:59:42.904Z,1016.04
2018-10-18T03:00:42.922Z,1016.07
2018-10-18T03:01:42.941Z,1016.06
2018-10-18T03:02:42.963Z,1016.09
2018-10-18T03:03:42.985Z,1016.06
2018-10-18T03:04:43.003Z,1016.06
2018-10-18T03:05:43.024Z,1016.08
2018-10-18T03:06:43.085Z,1016.11
2018-10-18T03:07:43.064Z,1016.14
2018-10-18T03:08:43.083Z,1016.10
2018-10-18T03:09:43.103Z,1016.13
2018-10-18T03:10:43.225Z,1016.14
2018-10-18T03:11:43.144Z,1016.13
2018-10-18T03:12:43.164Z,1016.14
2018-10-18T03:13:43.185Z,1016.14
2018-10-18T03:14:43.205Z,1016.14
2018-10-18T03:15:43.225Z,1016.17
2018-10-18T03:16:43.395Z,1016.17
2018-10-18T03:17:43.266Z,1016.16
2018-10-18T03:18:43.293Z,1016.17
2018-10-18T03:19:43.305Z,1016.15
2018-10-18T03:20:43.326Z,1016.17
2018-10-18T03:21:43.345Z,1016.12
2018-10-18T03:22:43.367Z,1016.17
2018-10-18T03:23:43.390Z,1016.14
2018-10-18T03:24:43.407Z,1016.12
2018-10-18T03:25:43.430Z,1016.15
2018-10-18T03:26:43.447Z,1016.17
2018-10-18T03:27:43.466Z,1016.15
2018-10-18T03:28:43.487Z,1016.22
2018-10-18T03:29:43.507Z,1016.21
2018-10-18T03:30:43.528Z,1016.20
2018-10-18T03:31:43.550Z,1016.24
2018-10-18T03:32:43.568Z,1016.24
2018-10-18T03:33:43.592Z,1016.25
2018-10-18T03:34:43.610Z,1016.24
2018-10-18T03:35:43.626Z,1016.21
2018-10-18T03:36:43.647Z,1016.24
2018-10-18T03:37:43.668Z,1016.30
2018-10-18T03:38:43.688Z,1016.25
2018-10-18T03:39:43.708Z,1016.29
2018-10-18T03:40:43.728Z,1016.30
2018-10-18T03:41:43.749Z,1016.27
2018-10-18T03:42:43.768Z,1016.26
2018-10-18T03:43:43.788Z,1016.26
2018-10-18T03:44:43.808Z,1016.26
2018-10-18T03:45:43.829Z,1016.24
2018-10-18T03:46:43.849Z,1016.25
2018-10-18T03:47:43.873Z,1016.27
2018-10-18T03:48:43.909Z,1016.25
2018-10-18T03:49:43.909Z,1016.27
2018-10-18T03:50:43.930Z,1016.26
2018-10-18T03:51:43.951Z,1016.26
2018-10-18T03:52:43.970Z,1016.26
2018-10-18T03:53:43.989Z,1016.28
2018-10-18T03:54:44.011Z,1016.29
2018-10-18T03:55:44.030Z,1016.29
2018-10-18T03:56:44.050Z,1016.32
2018-10-18T03:57:44.070Z,1016.33
2018-10-18T03:58:44.091Z,1016.37
2018-10-18T03:59:44.210Z,1016.35
2018-10-18T04:00:44.130Z,1016.32
2018-10-18T04:01:44.150Z,1016.36
2018-10-18T04:02:44.170Z,1016.37
2018-10-18T04:03:44.190Z,1016.35
2018-10-18T04:04:44.211Z,1016.34
2018-10-18T04:05:44.231Z,1016.36
2018-10-18T04:06:44.252Z,1016.36
2018-10-18T04:07:44.273Z,1016.32
2018-10-18T04:08:44.291Z,1016.31
2018-10-18T04:09:44.311Z,1016.36
2018-10-18T04:10:44.332Z,1016.42
2018-10-18T04:11:44.353Z,1016.38
2018-10-18T04:12:44.461Z,1016.39
2018-10-18T04:13:44.393Z,1016.44
2018-10-18T04:14:44.415Z,1016.38
2018-10-18T04:15:44.432Z,1016.38
2018-10-18T04:16:44.453Z,1016.41
2018-10-18T04:17:44.553Z,1016.40
2018-10-18T04:18:44.493Z,1016.40
2018-10-18T04:19:44.512Z,1016.43
2018-10-18T04:20:44.535Z,1016.40
2018-10-18T04:21:44.554Z,1016.40
2018-10-18T04:22:44.574Z,1016.45
2018-10-18T04:23:44.594Z,1016.42
2018-10-18T04:24:44.614Z,1016.43
2018-10-18T04:25:44.718Z,1016.47
2018-10-18T04:26:44.655Z,1016.46
2018-10-18T04:27:44.675Z,1016.42
2018-10-18T04:28:44.694Z,1016.42
2018-10-18T04:29:44.714Z,1016.41
2018-10-18T04:30:44.735Z,1016.42
2018-10-18T04:31:44.758Z,1016.44
2018-10-18T04:32:44.776Z,1016.41
2018-10-18T04:33:44.796Z,1016.44
2018-10-18T04:34:44.816Z,1016.45
2018-10-18T04:35:44.837Z,1016.46
2018-10-18T04:36:44.856Z,1016.46
2018-10-18T04:37:44.875Z,1016.43
2018-10-18T04:38:44.899Z,1016.51
2018-10-18T04:39:44.916Z,1016.51
2018-10-18T04:40:45.289Z,1016.47
2018-10-18T04:41:44.957Z,1016.57
2018-10-18T04:42:44.979Z,1016.54
2018-10-18T04:43:44.998Z,1016.54
2018-10-18T04:44:45.018Z,1016.53
2018-10-18T04:45:45.037Z,1016.58
2018-10-18T04:46:45.060Z,1016.55
2018-10-18T04:47:45.255Z,1016.62
2018-10-18T04:48:45.250Z,1016.63
2018-10-18T04:49:45.120Z,1016.63
2018-10-18T04:50:45.139Z,1016.57
2018-10-18T04:51:45.158Z,1016.65
2018-10-18T04:52:45.180Z,1016.65
2018-10-18T04:53:45.198Z,1016.70
2018-10-18T04:54:45.218Z,1016.66
2018-10-18T04:55:45.238Z,1016.67
2018-10-18T04:56:45.293Z,1016.64
2018-10-18T04:57:45.279Z,1016.67
2018-10-18T04:58:45.299Z,1016.68
2018-10-18T04:59:45.319Z,1016.71
2018-10-18T05:00:45.339Z,1016.66
2018-10-18T05:01:45.360Z,1016.68
2018-10-18T05:02:45.422Z,1016.70
2018-10-18T05:03:45.400Z,1016.70
2018-10-18T05:04:45.428Z,1016.71
2018-10-18T05:05:45.442Z,1016.70
2018-10-18T05:06:45.460Z,1016.75
2018-10-18T05:07:45.503Z,1016.72
2018-10-18T05:08:45.500Z,1016.72
2018-10-18T05:09:45.521Z,1016.75
2018-10-18T05:10:45.540Z,1016.75
2018-10-18T05:11:45.559Z,1016.72
2018-10-18T05:12:45.727Z,1016.69
2018-10-18T05:13:45.601Z,1016.71
2018-10-18T05:14:45.623Z,1016.71
2018-10-18T05:15:45.646Z,1016.71
2018-10-18T05:16:45.664Z,1016.70
2018-10-18T05:17:45.682Z,1016.73
2018-10-18T05:18:45.702Z,1016.73
2018-10-18T05:19:45.721Z,1016.67
2018-10-18T05:20:45.745Z,1016.68
2018-10-18T05:21:45.761Z,1016.69
2018-10-18T05:22:45.782Z,1016.68
2018-10-18T05:23:45.838Z,1016.66
2018-10-18T05:24:45.822Z,1016.66
2018-10-18T05:25:45.843Z,1016.69
2018-10-18T05:26:45.862Z,1016.62
2018-10-18T05:27:45.882Z,1016.61
2018-10-18T05:28:45.902Z,1016.63
2018-10-18T05:29:45.923Z,1016.62
2018-10-18T05:30:45.943Z,1016.63
2018-10-18T05:31:46.062Z,1016.65
2018-10-18T05:32:45.982Z,1016.66
2018-10-18T05:33:46.001Z,1016.64
2018-10-18T05:34:46.023Z,1016.67
2018-10-18T05:35:46.042Z,1016.63
2018-10-18T05:36:46.061Z,1016.67
2018-10-18T05:37:46.142Z,1016.69
2018-10-18T05:38:46.107Z,1016.64
2018-10-18T05:39:46.126Z,1016.72
2018-10-18T05:40:46.143Z,1016.63
2018-10-18T05:41:46.163Z,1016.67
2018-10-18T05:42:46.183Z,1016.68
2018-10-18T05:43:46.204Z,1016.69
2018-10-18T05:44:46.225Z,1016.69
2018-10-18T05:45:46.243Z,1016.69
2018-10-18T05:46:46.340Z,1016.67
2018-10-18T05:47:46.283Z,1016.72
2018-10-18T05:48:46.308Z,1016.67
2018-10-18T05:49:46.325Z,1016.73
2018-10-18T05:50:46.342Z,1016.70
2018-10-18T05:51:46.362Z,1016.76
2018-10-18T05:52:46.382Z,1016.71
2018-10-18T05:53:46.539Z,1016.69
2018-10-18T05:54:46.423Z,1016.71
2018-10-18T05:55:46.441Z,1016.77
2018-10-18T05:56:46.463Z,1016.77
2018-10-18T05:57:46.482Z,1016.81
2018-10-18T05:58:46.503Z,1016.86
2018-10-18T05:59:46.520Z,1016.84
2018-10-18T06:00:46.545Z,1016.84
2018-10-18T06:01:46.561Z,1016.86
2018-10-18T06:02:46.583Z,1016.84
2018-10-18T06:03:46.601Z,1016.85
2018-10-18T06:04:46.621Z,1016.84
2018-10-18T06:05:46.645Z,1016.88
2018-10-18T06:06:46.661Z,1016.88
2018-10-18T06:07:46.680Z,1016.91
2018-10-18T06:08:46.699Z,1016.87
2018-10-18T06:09:46.781Z,1016.80
2018-10-18T06:10:46.739Z,1016.90
2018-10-18T06:11:46.758Z,1016.92
2018-10-18T06:12:46.781Z,1016.95
2018-10-18T06:13:46.799Z,1016.94
2018-10-18T06:14:46.819Z,1017.02
2018-10-18T06:15:46.844Z,1016.99
2018-10-18T06:16:46.859Z,1017.00
2018-10-18T06:17:46.879Z,1017.00
2018-10-18T06:18:46.897Z,1017.04
2018-10-18T06:19:46.918Z,1017.03
2018-10-18T06:20:46.937Z,1017.03
2018-10-18T06:21:46.958Z,1017.02
2018-10-18T06:22:47.045Z,1017.05
2018-10-18T06:23:46.997Z,1017.04
2018-10-18T06:24:47.020Z,1017.05
2018-10-18T06:25:47.037Z,1017.09
2018-10-18T06:26:47.058Z,1017.04
2018-10-18T06:27:47.126Z,1017.08
2018-10-18T06:28:47.096Z,1017.12
2018-10-18T06:29:47.118Z,1017.12
2018-10-18T06:30:47.136Z,1017.11
2018-10-18T06:31:47.156Z,1017.12
2018-10-18T06:32:47.181Z,1017.11
2018-10-18T06:33:47.194Z,1017.12
2018-10-18T06:34:47.216Z,1017.14
2018-10-18T06:35:47.234Z,1017.16
2018-10-18T06:36:47.259Z,1017.14
2018-10-18T06:37:47.277Z,1017.13
2018-10-18T06:38:47.295Z,1017.17
2018-10-18T06:39:47.315Z,1017.17
2018-10-18T06:40:47.333Z,1017.17
2018-10-18T06:41:47.355Z,1017.18
2018-10-18T06:42:47.385Z,1017.17
2018-10-18T06:43:47.393Z,1017.19
2018-10-18T06:44:47.415Z,1017.19
2018-10-18T06:45:47.434Z,1017.19
2018-10-18T06:46:47.502Z,1017.20
2018-10-18T06:47:47.631Z,1017.20
2018-10-18T06:48:47.518Z,1017.26
2018-10-18T06:49:47.515Z,1017.26
2018-10-18T06:50:47.535Z,1017.27
2018-10-18T06:51:47.553Z,1017.29
2018-10-18T06:52:47.576Z,1017.29
2018-10-18T06:53:47.593Z,1017.33
2018-10-18T06:54:47.614Z,1017.32
2018-10-18T06:55:47.632Z,1017.32
2018-10-18T06:56:47.652Z,1017.30
2018-10-18T06:57:47.675Z,1017.41
2018-10-18T06:58:47.693Z,1017.46
2018-10-18T06:59:47.789Z,1017.45
2018-10-18T07:00:47.733Z,1017.50
2018-10-18T07:01:47.756Z,1017.48
2018-10-18T07:02:47.776Z,1017.52
2018-10-18T07:03:47.792Z,1017.53
2018-10-18T07:04:47.813Z,1017.52
2018-10-18T07:05:47.832Z,1017.56
2018-10-18T07:06:47.853Z,1017.56
2018-10-18T07:07:47.872Z,1017.56
2018-10-18T07:08:47.942Z,1017.56
2018-10-18T07:09:47.921Z,1017.60
2018-10-18T07:10:47.985Z,1017.61
2018-10-18T07:11:47.953Z,1017.57
2018-10-18T07:12:47.973Z,1017.57
2018-10-18T07:13:48.004Z,1017.56
2018-10-18T07:14:48.020Z,1017.65
2018-10-18T07:15:48.032Z,1017.65
2018-10-18T07:16:48.052Z,1017.63
2018-10-18T07:17:48.188Z,1017.61
2018-10-18T07:18:48.092Z,1017.62
2018-10-18T07:19:48.111Z,1017.60
2018-10-18T07:20:48.131Z,1017.63
2018-10-18T07:21:48.154Z,1017.61
2018-10-18T07:22:48.172Z,1017.64
2018-10-18T07:23:48.194Z,1017.68
2018-10-18T07:24:48.212Z,1017.67
2018-10-18T07:25:48.231Z,1017.68
2018-10-18T07:26:48.251Z,1017.70
2018-10-18T07:27:48.271Z,1017.70
2018-10-18T07:28:48.292Z,1017.73
2018-10-18T07:29:48.312Z,1017.72
2018-10-18T07:30:48.332Z,1017.71
2018-10-18T07:31:48.350Z,1017.69
2018-10-18T07:32:48.370Z,1017.72
2018-10-18T07:33:48.391Z,1017.69
2018-10-18T07:34:48.418Z,1017.72
2018-10-18T07:35:48.432Z,1017.73
2018-10-18T07:36:48.450Z,1017.71
2018-10-18T07:37:48.471Z,1017.71
2018-10-18T07:38:48.491Z,1017.72
2018-10-18T07:39:48.508Z,1017.75
2018-10-18T07:40:48.529Z,1017.71
2018-10-18T07:41:48.548Z,1017.75
2018-10-18T07:42:48.570Z,1017.70
2018-10-18T07:43:48.589Z,1017.74
2018-10-18T07:44:48.609Z,1017.71
2018-10-18T07:45:48.630Z,1017.70
2018-10-18T07:46:48.739Z,1017.73
2018-10-18T07:47:48.670Z,1017.74
2018-10-18T07:48:48.688Z,1017.76
2018-10-18T07:49:48.707Z,1017.72
2018-10-18T07:50:48.732Z,1017.72
2018-10-18T07:51:48.747Z,1017.74
2018-10-18T07:52:48.782Z,1017.74
2018-10-18T07:53:48.792Z,1017.73
2018-10-18T07:54:48.807Z,1017.73
2018-10-18T07:55:49.083Z,1017.78
2018-10-18T07:56:48.846Z,1017.77
2018-10-18T07:57:48.867Z,1017.77
2018-10-18T07:58:48.887Z,1017.80
2018-10-18T07:59:48.911Z,1017.82
2018-10-18T08:00:49.065Z,1017.79
2018-10-18T08:01:48.946Z,1017.77
2018-10-18T08:02:48.969Z,1017.78
2018-10-18T08:03:48.988Z,1017.78
2018-10-18T08:04:49.005Z,1017.80
2018-10-18T08:05:49.034Z,1017.79
2018-10-18T08:06:49.045Z,1017.83
2018-10-18T08:07:49.064Z,1017.87
2018-10-18T08:08:49.085Z,1017.84
2018-10-18T08:09:49.126Z,1017.83
2018-10-18T08:10:49.173Z,1017.81
2018-10-18T08:11:49.145Z,1017.86
2018-10-18T08:12:49.165Z,1017.87
2018-10-18T08:13:49.186Z,1017.81
2018-10-18T08:14:49.209Z,1017.86
2018-10-18T08:15:49.223Z,1017.84
2018-10-18T08:16:49.309Z,1017.85
2018-10-18T08:17:49.264Z,1017.87
2018-10-18T08:18:49.285Z,1017.88
2018-10-18T08:19:49.304Z,1017.90
2018-10-18T08:20:49.325Z,1017.92
2018-10-18T08:21:49.345Z,1017.90
2018-10-18T08:22:49.366Z,1017.93
2018-10-18T08:23:49.386Z,1017.84
2018-10-18T08:24:49.405Z,1017.87
2018-10-18T08:25:49.425Z,1017.89
2018-10-18T08:26:49.446Z,1017.92
2018-10-18T08:27:49.465Z,1017.86
2018-10-18T08:28:49.493Z,1017.87
2018-10-18T08:29:49.509Z,1017.88
2018-10-18T08:30:49.526Z,1017.86
2018-10-18T08:31:49.629Z,1017.87
2018-10-18T08:32:49.566Z,1017.88
2018-10-18T08:33:49.586Z,1017.85
2018-10-18T08:34:49.606Z,1017.88
2018-10-18T08:35:49.625Z,1017.83
2018-10-18T08:36:49.654Z,1017.83
2018-10-18T08:37:49.767Z,1017.85
2018-10-18T08:38:49.686Z,1017.86
2018-10-18T08:39:49.706Z,1017.87
2018-10-18T08:40:49.725Z,1017.85
2018-10-18T08:41:49.746Z,1017.84
2018-10-18T08:42:49.765Z,1017.81
2018-10-18T08:43:49.811Z,1017.84
2018-10-18T08:44:49.808Z,1017.86
2018-10-18T08:45:49.826Z,1017.88
2018-10-18T08:46:49.846Z,1017.89
2018-10-18T08:47:49.865Z,1017.87
2018-10-18T08:48:49.888Z,1017.93
2018-10-18T08:49:49.999Z,1017.95
2018-10-18T08:50:49.932Z,1017.93
2018-10-18T08:51:49.947Z,1017.93
2018-10-18T08:52:49.969Z,1017.98
2018-10-18T08:53:49.988Z,1018.07
2018-10-18T08:54:50.008Z,1018.05
2018-10-18T08:55:50.028Z,1018.04
2018-10-18T08:56:50.051Z,1018.11
2018-10-18T08:57:50.070Z,1018.05
2018-10-18T08:58:50.090Z,1018.06
2018-10-18T08:59:50.108Z,1018.11
2018-10-18T09:00:50.128Z,1018.11
2018-10-18T09:01:50.149Z,1018.16
2018-10-18T09:02:50.169Z,1018.17
2018-10-18T09:03:50.189Z,1018.15
2018-10-18T09:04:50.209Z,1018.18
2018-10-18T09:05:50.230Z,1018.17
2018-10-18T09:06:50.251Z,1018.22
2018-10-18T09:07:50.271Z,1018.19
2018-10-18T09:08:50.294Z,1018.22
2018-10-18T09:09:50.320Z,1018.22
2018-10-18T09:10:50.333Z,1018.18
2018-10-18T09:11:50.554Z,1018.25
2018-10-18T09:12:50.374Z,1018.21
2018-10-18T09:13:50.392Z,1018.23
2018-10-18T09:14:50.417Z,1018.24
2018-10-18T09:15:50.478Z,1018.20
2018-10-18T09:16:50.455Z,1018.20
2018-10-18T09:17:50.475Z,1018.22
2018-10-18T09:18:50.496Z,1018.23
2018-10-18T09:19:50.516Z,1018.22
2018-10-18T09:20:50.538Z,1018.23
2018-10-18T09:21:50.561Z,1018.23
2018-10-18T09:22:50.580Z,1018.20
2018-10-18T09:23:50.682Z,1018.21
2018-10-18T09:24:50.621Z,1018.18
2018-10-18T09:25:50.642Z,1018.24
2018-10-18T09:26:50.661Z,1018.28
2018-10-18T09:27:50.690Z,1018.30
2018-10-18T09:28:50.704Z,1018.29
2018-10-18T09:29:50.724Z,1018.28
2018-10-18T09:30:50.746Z,1018.29
2018-10-18T09:31:50.765Z,1018.30
2018-10-18T09:32:50.789Z,1018.23
2018-10-18T09:33:50.809Z,1018.27
2018-10-18T09:34:50.832Z,1018.31
2018-10-18T09:35:50.849Z,1018.31
2018-10-18T09:36:50.871Z,1018.35
2018-10-18T09:37:50.893Z,1018.32
2018-10-18T09:38:50.913Z,1018.30
2018-10-18T09:39:50.935Z,1018.28
2018-10-18T09:40:50.954Z,1018.27
2018-10-18T09:41:50.976Z,1018.32
2018-10-18T09:42:50.997Z,1018.34
2018-10-18T09:43:51.022Z,1018.37
2018-10-18T09:44:51.069Z,1018.38
2018-10-18T09:45:51.061Z,1018.47
2018-10-18T09:46:51.082Z,1018.38
2018-10-18T09:47:51.103Z,1018.46
2018-10-18T09:48:51.123Z,1018.43
2018-10-18T09:49:51.144Z,1018.41
2018-10-18T09:50:51.165Z,1018.44
2018-10-18T09:51:51.186Z,1018.41
2018-10-18T09:52:51.263Z,1018.41
2018-10-18T09:53:51.228Z,1018.46
2018-10-18T09:54:51.254Z,1018.46
2018-10-18T09:55:51.274Z,1018.44
2018-10-18T09:56:51.290Z,1018.46
2018-10-18T09:57:51.312Z,1018.51
2018-10-18T09:58:51.338Z,1018.47
2018-10-18T09:59:51.357Z,1018.47
2018-10-18T10:00:51.376Z,1018.49
2018-10-18T10:01:51.396Z,1018.50
2018-10-18T10:02:51.420Z,1018.56
2018-10-18T10:03:51.438Z,1018.50
2018-10-18T10:04:51.459Z,1018.53
2018-10-18T10:05:51.481Z,1018.52
2018-10-18T10:06:51.509Z,1018.58
2018-10-18T10:07:51.523Z,1018.54
2018-10-18T10:08:51.545Z,1018.59
2018-10-18T10:09:51.567Z,1018.62
2018-10-18T10:10:51.588Z,1018.64
2018-10-18T10:11:51.639Z,1018.64
2018-10-18T10:12:51.673Z,1018.60
2018-10-18T10:13:51.651Z,1018.61
2018-10-18T10:14:51.672Z,1018.61
2018-10-18T10:15:51.705Z,1018.63
2018-10-18T10:16:51.714Z,1018.66
2018-10-18T10:17:51.736Z,1018.63
2018-10-18T10:18:51.810Z,1018.58
2018-10-18T10:19:51.780Z,1018.63
2018-10-18T10:20:51.800Z,1018.63
2018-10-18T10:21:51.822Z,1018.61
2018-10-18T10:22:51.848Z,1018.63
2018-10-18T10:23:52.114Z,1018.62
2018-10-18T10:24:51.935Z,1018.66
2018-10-18T10:25:51.960Z,1018.58
2018-10-18T10:26:51.930Z,1018.60
2018-10-18T10:27:51.950Z,1018.59
2018-10-18T10:28:51.972Z,1018.58
2018-10-18T10:29:51.993Z,1018.62
2018-10-18T10:30:52.019Z,1018.58
2018-10-18T10:31:52.036Z,1018.62
2018-10-18T10:32:52.086Z,1018.60
2018-10-18T10:33:52.080Z,1018.62
2018-10-18T10:34:52.110Z,1018.58
2018-10-18T10:35:52.121Z,1018.61
2018-10-18T10:36:52.164Z,1018.67
2018-10-18T10:37:52.165Z,1018.64
2018-10-18T10:38:52.616Z,1018.67
2018-10-18T10:39:52.211Z,1018.66
2018-10-18T10:40:52.247Z,1018.65
2018-10-18T10:41:52.252Z,1018.62
2018-10-18T10:42:52.324Z,1018.63
2018-10-18T10:43:52.298Z,1018.64
2018-10-18T10:44:52.358Z,1018.65
2018-10-18T10:45:52.490Z,1018.63
2018-10-18T10:46:52.505Z,1018.60
2018-10-18T10:47:52.377Z,1018.63
2018-10-18T10:48:52.397Z,1018.66
2018-10-18T10:49:52.426Z,1018.64
2018-10-18T10:50:52.490Z,1018.64
2018-10-18T10:51:52.489Z,1018.66
2018-10-18T10:52:52.486Z,1018.64
2018-10-18T10:53:52.545Z,1018.61
2018-10-18T10:54:52.523Z,1018.61
2018-10-18T10:55:52.556Z,1018.62
2018-10-18T10:56:52.565Z,1018.56
2018-10-18T10:57:52.595Z,1018.60
2018-10-18T10:58:52.646Z,1018.56
2018-10-18T10:59:52.628Z,1018.59
2018-10-18T11:00:52.648Z,1018.60
2018-10-18T11:01:52.678Z,1018.59
2018-10-18T11:02:52.697Z,1018.58
2018-10-18T11:03:52.721Z,1018.57
2018-10-18T11:04:52.731Z,1018.58
2018-10-18T11:05:52.787Z,1018.59
2018-10-18T11:06:52.774Z,1018.56
2018-10-18T11:07:52.798Z,1018.50
2018-10-18T11:08:52.849Z,1018.53
2018-10-18T11:09:52.837Z,1018.57
2018-10-18T11:10:52.856Z,1018.58
2018-10-18T11:11:52.903Z,1018.61
2018-10-18T11:12:52.898Z,1018.57
2018-10-18T11:13:52.924Z,1018.54
2018-10-18T11:14:52.988Z,1018.51
2018-10-18T11:15:52.962Z,1018.51
2018-10-18T11:16:52.981Z,1018.52
2018-10-18T11:17:53.008Z,1018.46
2018-10-18T11:18:53.025Z,1018.48
2018-10-18T11:19:53.088Z,1018.48
2018-10-18T11:20:53.069Z,1018.50
2018-10-18T11:21:53.087Z,1018.48
2018-10-18T11:22:53.108Z,1018.48
2018-10-18T11:23:53.172Z,1018.49
2018-10-18T11:24:53.253Z,1018.48
2018-10-18T11:25:53.233Z,1018.41
2018-10-18T11:26:53.208Z,1018.44
2018-10-18T11:27:53.214Z,1018.47
2018-10-18T11:28:53.235Z,1018.43
2018-10-18T11:29:53.270Z,1018.42
2018-10-18T11:30:53.282Z,1018.42
2018-10-18T11:31:53.331Z,1018.44
2018-10-18T11:32:53.894Z,1018.40
2018-10-18T11:33:53.342Z,1018.40
2018-10-18T11:34:53.364Z,1018.39
2018-10-18T11:35:53.537Z,1018.42
2018-10-18T11:36:53.405Z,1018.42
2018-10-18T11:37:53.429Z,1018.42
2018-10-18T11:38:53.498Z,1018.43
2018-10-18T11:39:53.470Z,1018.42
2018-10-18T11:40:53.490Z,1018.39
2018-10-18T11:41:53.514Z,1018.36
2018-10-18T11:42:53.533Z,1018.43
2018-10-18T11:43:53.603Z,1018.43
2018-10-18T11:44:53.575Z,1018.41
2018-10-18T11:45:53.596Z,1018.36
2018-10-18T11:46:53.617Z,1018.38
2018-10-18T11:47:53.646Z,1018.32
2018-10-18T11:48:53.661Z,1018.34
2018-10-18T11:49:53.719Z,1018.32
2018-10-18T11:50:53.701Z,1018.35
2018-10-18T11:51:53.783Z,1018.39
2018-10-18T11:52:53.743Z,1018.34
2018-10-18T11:53:53.806Z,1018.34
2018-10-18T11:54:53.791Z,1018.39
2018-10-18T11:55:53.851Z,1018.36
2018-10-18T11:56:53.828Z,1018.34
2018-10-18T11:57:53.848Z,1018.37
2018-10-18T11:58:53.918Z,1018.36
2018-10-18T11:59:53.891Z,1018.33
2018-10-18T12:00:53.911Z,1018.39
2018-10-18T12:01:53.937Z,1018.34
2018-10-18T12:02:53.954Z,1018.39
2018-10-18T12:03:53.973Z,1018.35
2018-10-18T12:04:54.045Z,1018.33
2018-10-18T12:05:54.017Z,1018.35